createdAt,value
2019-01-18T00:01:47.271Z,80.63
2019-01-18T00:04:13.198Z,80.49
2019-01-18T00:06:39.297Z,80.30
2019-01-18T00:09:05.478Z,79.96
2019-01-18T00:11:31.490Z,80.33
2019-01-18T00:13:57.456Z,80.43
2019-01-18T00:16:23.436Z,80.33
2019-01-18T00:18:49.551Z,80.49
2019-01-18T00:21:16.011Z,80.70
2019-01-18T00:23:41.977Z,80.74
2019-01-18T00:26:07.861Z,80.74
2019-01-18T00:28:33.764Z,80.75
2019-01-18T00:30:59.685Z,80.53
2019-01-18T00:33:25.676Z,80.87
2019-01-18T00:35:51.591Z,80.52
2019-01-18T00:38:17.568Z,80.61
2019-01-18T00:40:43.513Z,80.51
2019-01-18T00:43:09.545Z,80.36
2019-01-18T00:45:35.447Z,80.10
2019-01-18T00:48:01.401Z,80.41
2019-01-18T00:50:27.266Z,80.25
2019-01-18T00:52:53.146Z,80.25
2019-01-18T00:55:19.031Z,80.34
2019-01-18T00:57:45.021Z,80.32
2019-01-18T01:00:16.966Z,80.81
2019-01-18T01:02:42.852Z,80.54
2019-01-18T01:05:08.755Z,80.09
2019-01-18T01:07:34.629Z,80.16
2019-01-18T01:10:00.496Z,80.04
2019-01-18T01:12:26.367Z,80.23
2019-01-18T01:14:52.226Z,80.18
2019-01-18T01:17:18.093Z,80.12
2019-01-18T01:19:44.198Z,80.36
2019-01-18T01:22:11.590Z,80.30
2019-01-18T01:24:37.462Z,80.17
2019-01-18T01:27:03.338Z,80.00
2019-01-18T01:29:29.222Z,80.41
2019-01-18T01:31:55.211Z,80.00
2019-01-18T01:34:21.069Z,79.91
2019-01-18T01:36:46.959Z,79.68
2019-01-18T01:39:12.839Z,79.91
2019-01-18T01:41:38.695Z,79.98
2019-01-18T01:44:04.582Z,80.01
2019-01-18T01:46:30.563Z,80.05
2019-01-18T01:48:56.434Z,79.88
2019-01-18T01:51:22.326Z,79.75
2019-01-18T01:53:48.322Z,79.93
2019-01-18T01:56:14.293Z,80.00
2019-01-18T01:58:40.170Z,79.68
2019-01-18T02:01:06.069Z,79.57
2019-01-18T02:03:31.941Z,79.48
2019-01-18T02:05:57.815Z,78.96
2019-01-18T02:08:23.687Z,79.36
2019-01-18T02:10:49.591Z,79.23
2019-01-18T02:13:15.467Z,79.25
2019-01-18T02:15:41.336Z,79.45
2019-01-18T02:18:07.242Z,79.54
2019-01-18T02:20:33.226Z,78.83
2019-01-18T02:22:59.665Z,79.76
2019-01-18T02:25:25.531Z,80.94
2019-01-18T02:27:51.516Z,81.69
2019-01-18T02:30:24.215Z,81.29
2019-01-18T02:32:50.078Z,81.34
2019-01-18T02:35:16.012Z,80.87
2019-01-18T02:37:41.872Z,80.43
2019-01-18T02:40:09.839Z,80.71
2019-01-18T02:42:35.735Z,80.76
2019-01-18T02:45:02.710Z,80.11
2019-01-18T02:47:28.713Z,80.78
2019-01-18T02:49:54.640Z,80.51
2019-01-18T02:52:20.522Z,80.63
2019-01-18T02:54:46.444Z,80.89
2019-01-18T02:57:12.257Z,80.77
2019-01-18T02:59:38.134Z,80.84
2019-01-18T03:02:04.084Z,80.62
2019-01-18T03:04:29.976Z,80.69
2019-01-18T03:06:55.834Z,80.67
2019-01-18T03:09:21.729Z,80.81
2019-01-18T03:11:47.719Z,80.33
2019-01-18T03:14:13.594Z,80.47
2019-01-18T03:16:39.480Z,80.56
2019-01-18T03:19:05.396Z,80.81
2019-01-18T03:21:31.581Z,81.01
2019-01-18T03:23:57.841Z,81.20
2019-01-18T03:26:23.781Z,80.97
2019-01-18T03:28:49.734Z,81.31
2019-01-18T03:31:15.723Z,81.38
2019-01-18T03:33:41.600Z,81.46
2019-01-18T03:36:07.487Z,81.47
2019-01-18T03:38:33.359Z,81.37
2019-01-18T03:40:59.231Z,81.95
2019-01-18T03:43:25.132Z,82.41
2019-01-18T03:45:51.022Z,82.43
2019-01-18T03:48:16.866Z,81.70
2019-01-18T03:50:42.748Z,82.03
2019-01-18T03:53:08.618Z,81.93
2019-01-18T03:55:34.598Z,81.91
2019-01-18T03:58:00.495Z,81.99
2019-01-18T04:00:27.271Z,81.98
2019-01-18T04:02:53.268Z,82.07
2019-01-18T04:05:19.178Z,82.22
2019-01-18T04:07:45.085Z,82.44
2019-01-18T04:10:16.587Z,82.36
2019-01-18T04:12:42.472Z,82.01
2019-01-18T04:15:11.120Z,81.75
2019-01-18T04:17:37.018Z,81.63
2019-01-18T04:20:06.443Z,82.06
2019-01-18T04:22:32.822Z,82.03
2019-01-18T04:24:59.056Z,81.87
2019-01-18T04:27:25.042Z,81.77
2019-01-18T04:29:50.914Z,81.90
2019-01-18T04:32:16.791Z,81.57
2019-01-18T04:34:42.794Z,81.84
2019-01-18T04:37:08.642Z,81.97
2019-01-18T04:39:34.620Z,81.76
2019-01-18T04:42:00.482Z,81.37
2019-01-18T04:44:26.359Z,80.77
2019-01-18T04:46:52.238Z,80.79
2019-01-18T04:49:18.127Z,81.34
2019-01-18T04:51:43.979Z,81.00
2019-01-18T04:54:09.881Z,81.08
2019-01-18T04:56:35.791Z,82.16
2019-01-18T04:59:01.675Z,82.06
2019-01-18T05:01:27.538Z,81.80
2019-01-18T05:03:53.418Z,81.45
2019-01-18T05:06:19.282Z,81.24
2019-01-18T05:08:45.148Z,80.51
2019-01-18T05:11:11.079Z,80.74
2019-01-18T05:13:36.953Z,80.82
2019-01-18T05:16:04.728Z,80.56
2019-01-18T05:18:30.612Z,80.08
2019-01-18T05:20:56.515Z,81.04
2019-01-18T05:23:22.732Z,81.62
2019-01-18T05:25:48.857Z,81.17
2019-01-18T05:28:14.714Z,81.12
2019-01-18T05:30:47.295Z,80.70
2019-01-18T05:33:08.362Z,80.71
2019-01-18T05:35:34.236Z,80.57
2019-01-18T05:38:00.198Z,80.43
2019-01-18T05:40:26.056Z,80.94
2019-01-18T05:42:51.943Z,81.22
2019-01-18T05:45:19.621Z,81.49
2019-01-18T05:47:45.613Z,81.99
2019-01-18T05:50:19.254Z,81.56
2019-01-18T05:52:45.216Z,80.83
2019-01-18T05:55:11.322Z,80.53
2019-01-18T05:57:37.213Z,80.14
2019-01-18T06:00:06.997Z,79.96
2019-01-18T06:02:32.872Z,81.02
2019-01-18T06:04:59.458Z,81.03
2019-01-18T06:07:25.339Z,81.17
2019-01-18T06:09:51.224Z,80.96
2019-01-18T06:12:17.111Z,80.93
2019-01-18T06:14:42.968Z,80.96
2019-01-18T06:17:09.048Z,80.76
2019-01-18T06:19:34.925Z,80.80
2019-01-18T06:22:00.923Z,81.30
2019-01-18T06:24:26.928Z,81.45
2019-01-18T06:26:53.315Z,80.23
2019-01-18T06:29:19.217Z,79.88
2019-01-18T06:31:45.116Z,79.88
2019-01-18T06:34:11.001Z,79.81
2019-01-18T06:36:36.888Z,80.33
2019-01-18T06:39:04.782Z,80.26
2019-01-18T06:41:32.162Z,81.24
2019-01-18T06:43:58.075Z,81.44
2019-01-18T06:46:24.349Z,81.29
2019-01-18T06:48:50.819Z,80.91
2019-01-18T06:51:16.734Z,80.61
2019-01-18T06:53:42.633Z,80.40
2019-01-18T06:56:08.494Z,80.62
2019-01-18T06:58:34.442Z,81.10
2019-01-18T07:01:00.323Z,80.70
2019-01-18T07:03:26.246Z,81.67
2019-01-18T07:05:52.115Z,82.00
2019-01-18T07:08:18.009Z,82.29
2019-01-18T07:10:43.877Z,82.42
2019-01-18T07:13:09.835Z,82.31
2019-01-18T07:15:35.744Z,82.45
2019-01-18T07:18:01.634Z,82.32
2019-01-18T07:20:27.524Z,81.51
2019-01-18T07:22:53.408Z,81.65
2019-01-18T07:25:25.228Z,81.50
2019-01-18T07:27:52.186Z,81.50
2019-01-18T07:30:21.858Z,81.28
2019-01-18T07:32:47.732Z,81.15
2019-01-18T07:35:13.626Z,81.00
2019-01-18T07:37:39.502Z,80.58
2019-01-18T07:40:07.387Z,80.70
2019-01-18T07:42:33.646Z,80.70
2019-01-18T07:44:59.537Z,80.79
2019-01-18T07:47:25.747Z,79.93
2019-01-18T07:49:51.627Z,79.43
2019-01-18T07:52:17.511Z,79.17
2019-01-18T07:54:43.407Z,79.97
2019-01-18T07:57:09.295Z,80.38
2019-01-18T07:59:35.210Z,80.09
2019-01-18T08:02:01.124Z,79.54
2019-01-18T08:04:26.973Z,79.41
2019-01-18T08:06:52.885Z,78.83
2019-01-18T08:09:18.768Z,78.59
2019-01-18T08:11:44.733Z,77.81
2019-01-18T08:14:10.622Z,77.39
2019-01-18T08:16:36.481Z,77.76
2019-01-18T08:19:02.373Z,78.12
2019-01-18T08:21:28.268Z,77.64
2019-01-18T08:23:54.230Z,77.16
2019-01-18T08:26:20.538Z,77.22
2019-01-18T08:28:48.553Z,77.56
2019-01-18T08:31:14.606Z,77.41
2019-01-18T08:33:41.772Z,77.17
2019-01-18T08:36:07.661Z,77.27
2019-01-18T08:38:33.577Z,76.67
2019-01-18T08:40:59.449Z,76.23
2019-01-18T08:43:25.439Z,75.75
2019-01-18T08:45:51.343Z,74.47
2019-01-18T08:48:17.214Z,73.84
2019-01-18T08:50:43.099Z,73.44
2019-01-18T08:53:09.073Z,73.85
2019-01-18T08:55:34.977Z,73.43
2019-01-18T08:58:00.870Z,73.90
2019-01-18T09:00:31.003Z,73.91
2019-01-18T09:02:56.971Z,73.44
2019-01-18T09:05:24.792Z,73.57
2019-01-18T09:07:50.683Z,74.16
2019-01-18T09:10:19.573Z,74.55
2019-01-18T09:12:45.539Z,74.35
2019-01-18T09:15:12.413Z,75.18
2019-01-18T09:17:39.815Z,74.22
2019-01-18T09:20:15.502Z,74.17
2019-01-18T09:22:41.379Z,73.62
2019-01-18T09:25:07.252Z,73.74
2019-01-18T09:27:33.602Z,73.92
2019-01-18T09:30:00.472Z,74.94
2019-01-18T09:32:26.315Z,75.45
2019-01-18T09:34:52.348Z,75.32
2019-01-18T09:37:18.215Z,75.42
2019-01-18T09:39:45.439Z,75.93
2019-01-18T09:42:11.523Z,75.04
2019-01-18T09:44:37.410Z,74.12
2019-01-18T09:47:03.248Z,73.30
2019-01-18T09:49:29.286Z,73.17
2019-01-18T09:51:55.227Z,72.59
2019-01-18T09:54:21.188Z,72.55
2019-01-18T09:56:47.074Z,72.48
2019-01-18T09:59:12.940Z,72.25
2019-01-18T10:01:38.809Z,72.37
2019-01-18T10:04:04.715Z,71.04
2019-01-18T10:06:30.595Z,71.80
2019-01-18T10:08:56.456Z,71.69
2019-01-18T10:11:22.384Z,71.87
2019-01-18T10:13:48.290Z,70.91
2019-01-18T10:16:14.278Z,70.22
2019-01-18T10:18:40.152Z,70.55
2019-01-18T10:21:06.023Z,70.70
2019-01-18T10:23:31.999Z,70.50
2019-01-18T10:25:57.949Z,71.59
2019-01-18T10:28:24.510Z,71.20
2019-01-18T10:30:51.672Z,70.86
2019-01-18T10:33:17.533Z,70.63
2019-01-18T10:35:43.779Z,71.37
2019-01-18T10:38:09.647Z,71.72
2019-01-18T10:40:35.640Z,71.64
2019-01-18T10:43:01.579Z,71.29
2019-01-18T10:45:27.443Z,72.27
2019-01-18T10:47:53.292Z,71.32
2019-01-18T10:50:22.525Z,71.11
2019-01-18T10:52:48.370Z,71.41
2019-01-18T10:55:14.358Z,70.92
2019-01-18T10:57:40.326Z,70.24
2019-01-18T11:00:12.767Z,69.53
2019-01-18T11:02:38.612Z,68.33
2019-01-18T11:05:07.498Z,68.72
2019-01-18T11:07:33.397Z,67.52
2019-01-18T11:09:59.264Z,68.99
2019-01-18T11:12:25.173Z,68.25
2019-01-18T11:14:51.048Z,66.75
2019-01-18T11:17:16.955Z,67.49
2019-01-18T11:19:42.860Z,66.86
2019-01-18T11:22:08.756Z,67.11
2019-01-18T11:24:34.733Z,66.57
2019-01-18T11:27:00.612Z,66.23
2019-01-18T11:29:27.051Z,67.60
2019-01-18T11:31:54.053Z,67.06
2019-01-18T11:34:20.057Z,66.57
2019-01-18T11:36:46.017Z,65.00
2019-01-18T11:39:11.933Z,65.31
2019-01-18T11:41:37.825Z,64.32
2019-01-18T11:44:04.308Z,64.21
2019-01-18T11:46:30.203Z,65.70
2019-01-18T11:48:56.178Z,66.11
2019-01-18T11:51:22.084Z,65.35
2019-01-18T11:53:47.959Z,65.50
2019-01-18T11:56:13.829Z,66.01
2019-01-18T11:58:39.738Z,65.65
2019-01-18T12:01:05.679Z,64.64
2019-01-18T12:03:31.482Z,62.67
2019-01-18T12:05:57.377Z,60.24
2019-01-18T12:08:23.264Z,58.31
2019-01-18T12:10:49.145Z,56.63
2019-01-18T12:13:14.997Z,52.54
2019-01-18T12:15:40.883Z,53.48
2019-01-18T12:18:06.799Z,52.50
2019-01-18T12:20:33.364Z,53.44
2019-01-18T12:22:59.342Z,55.26
2019-01-18T12:25:25.225Z,56.00
2019-01-18T12:27:51.086Z,56.04
2019-01-18T12:30:27.484Z,57.85
2019-01-18T12:32:55.050Z,60.92
2019-01-18T12:35:20.948Z,61.65
2019-01-18T12:37:46.798Z,61.84
2019-01-18T12:40:12.792Z,62.65
2019-01-18T12:42:58.522Z,62.68
2019-01-18T12:45:24.393Z,61.86
2019-01-18T12:47:50.254Z,59.30
2019-01-18T12:50:25.705Z,59.51
2019-01-18T12:52:51.577Z,56.41
2019-01-18T12:55:17.457Z,54.40
2019-01-18T12:57:43.395Z,54.82
2019-01-18T13:00:18.619Z,52.81
2019-01-18T13:02:44.485Z,45.27
2019-01-18T13:05:15.778Z,42.10
2019-01-18T13:07:41.857Z,45.35
2019-01-18T13:10:12.286Z,48.38
2019-01-18T13:12:36.104Z,43.44
2019-01-18T13:15:08.263Z,45.10
2019-01-18T13:17:34.192Z,44.86
2019-01-18T13:20:00.095Z,45.72
2019-01-18T13:22:26.277Z,47.28
2019-01-18T13:24:52.154Z,46.56
2019-01-18T13:27:18.000Z,48.66
2019-01-18T13:29:43.851Z,54.50
2019-01-18T13:32:09.842Z,55.53
2019-01-18T13:34:36.631Z,56.98
2019-01-18T13:37:02.704Z,57.23
2019-01-18T13:39:28.596Z,59.35
2019-01-18T13:41:54.484Z,61.54
2019-01-18T13:44:21.340Z,61.10
2019-01-18T13:46:47.229Z,61.69
2019-01-18T13:49:13.188Z,61.84
2019-01-18T13:51:39.111Z,62.27
2019-01-18T13:54:04.997Z,62.06
2019-01-18T13:56:30.862Z,62.45
2019-01-18T13:58:56.765Z,62.08
2019-01-18T14:01:22.613Z,62.33
2019-01-18T14:03:48.472Z,61.81
2019-01-18T14:06:14.361Z,61.55
2019-01-18T14:08:42.231Z,61.14
2019-01-18T14:11:08.060Z,61.37
2019-01-18T14:13:37.416Z,61.35
2019-01-18T14:16:01.712Z,61.17
2019-01-18T14:18:27.586Z,60.64
2019-01-18T14:20:53.500Z,60.46
2019-01-18T14:23:19.344Z,59.97
2019-01-18T14:25:45.207Z,59.99
2019-01-18T14:28:11.259Z,60.13
2019-01-18T14:30:37.149Z,60.51
2019-01-18T14:33:03.150Z,60.58
2019-01-18T14:35:29.933Z,61.36
2019-01-18T14:37:55.839Z,60.52
2019-01-18T14:40:21.699Z,60.75
2019-01-18T14:42:49.870Z,60.49
2019-01-18T14:45:19.436Z,60.11
2019-01-18T14:47:45.410Z,60.52
2019-01-18T14:50:15.169Z,59.70
2019-01-18T14:52:41.086Z,60.25
2019-01-18T14:55:06.973Z,60.14
2019-01-18T14:57:32.831Z,60.32
2019-01-18T14:59:58.754Z,60.95
2019-01-18T15:02:24.598Z,60.84
2019-01-18T15:04:50.468Z,61.03
2019-01-18T15:07:16.323Z,60.83
2019-01-18T15:09:42.204Z,61.29
2019-01-18T15:12:08.088Z,61.11
2019-01-18T15:14:33.972Z,61.96
2019-01-18T15:16:59.873Z,62.42
2019-01-18T15:19:25.733Z,62.15
2019-01-18T15:21:51.607Z,62.30
2019-01-18T15:24:17.487Z,61.48
2019-01-18T15:26:43.372Z,62.17
2019-01-18T15:29:09.239Z,61.96
2019-01-18T15:31:35.121Z,62.22
2019-01-18T15:34:01.092Z,62.36
2019-01-18T15:36:27.382Z,62.70
2019-01-18T15:38:53.239Z,62.85
2019-01-18T15:41:19.148Z,63.48
2019-01-18T15:43:45.217Z,64.75
2019-01-18T15:46:11.088Z,65.45
2019-01-18T15:48:37.428Z,66.01
2019-01-18T15:51:03.287Z,65.84
2019-01-18T15:53:29.187Z,65.98
2019-01-18T15:55:55.067Z,65.81
2019-01-18T15:58:20.943Z,66.15
2019-01-18T16:00:46.842Z,65.55
2019-01-18T16:03:16.015Z,65.13
2019-01-18T16:05:40.494Z,64.88
2019-01-18T16:08:06.465Z,64.25
2019-01-18T16:10:32.952Z,64.77
2019-01-18T16:12:58.865Z,64.18
2019-01-18T16:15:31.740Z,64.01
2019-01-18T16:17:57.583Z,63.95
2019-01-18T16:20:23.856Z,63.39
2019-01-18T16:22:49.847Z,63.75
2019-01-18T16:25:21.565Z,63.36
2019-01-18T16:27:47.590Z,63.48
2019-01-18T16:30:15.902Z,63.95
2019-01-18T16:32:41.750Z,63.54
2019-01-18T16:35:10.481Z,63.12
2019-01-18T16:37:37.225Z,63.59
2019-01-18T16:40:06.898Z,64.94
2019-01-18T16:42:33.240Z,66.13
2019-01-18T16:44:59.124Z,65.19
2019-01-18T16:47:25.014Z,65.08
2019-01-18T16:49:50.872Z,65.48
2019-01-18T16:52:16.767Z,65.13
2019-01-18T16:54:42.609Z,65.37
2019-01-18T16:57:08.496Z,65.13
2019-01-18T16:59:34.795Z,64.95
2019-01-18T17:02:00.682Z,64.24
2019-01-18T17:04:26.545Z,64.33
2019-01-18T17:06:52.425Z,65.51
2019-01-18T17:09:18.292Z,63.96
2019-01-18T17:11:44.179Z,63.51
2019-01-18T17:14:10.135Z,64.23
2019-01-18T17:16:36.031Z,64.41
2019-01-18T17:19:01.926Z,63.42
2019-01-18T17:21:27.807Z,63.85
2019-01-18T17:23:53.663Z,62.22
2019-01-18T17:26:19.536Z,62.96
2019-01-18T17:28:45.403Z,63.63
2019-01-18T17:31:11.292Z,63.22
2019-01-18T17:33:38.560Z,63.41
2019-01-18T17:36:16.557Z,63.51
2019-01-18T17:38:47.491Z,63.60
2019-01-18T17:41:41.470Z,63.56
2019-01-18T17:44:31.269Z,63.96
2019-01-18T17:47:34.521Z,63.54
2019-01-18T17:50:30.357Z,64.07
2019-01-18T17:53:30.678Z,64.18
2019-01-18T17:56:03.220Z,63.61
2019-01-18T17:58:53.959Z,63.96
2019-01-18T18:01:23.665Z,65.02
2019-01-18T18:03:59.160Z,64.23
2019-01-18T18:06:45.582Z,64.67
2019-01-18T18:09:18.256Z,64.14
2019-01-18T18:12:02.872Z,64.17
2019-01-18T18:14:42.261Z,62.68
2019-01-18T18:17:14.714Z,62.84
2019-01-18T18:19:53.207Z,63.29
2019-01-18T18:22:34.637Z,63.79
2019-01-18T18:25:39.558Z,64.48
2019-01-18T18:28:44.220Z,64.59
2019-01-18T18:31:16.894Z,64.89
2019-01-18T18:34:12.568Z,65.55
2019-01-18T18:36:55.116Z,65.81
2019-01-18T18:39:28.535Z,65.51
2019-01-18T18:42:14.742Z,64.99
2019-01-18T18:44:44.418Z,65.38
2019-01-18T18:47:17.046Z,65.10
2019-01-18T18:49:52.950Z,65.25
2019-01-18T18:52:29.527Z,66.02
2019-01-18T18:55:14.427Z,66.24
2019-01-18T18:58:04.791Z,65.94
2019-01-18T19:00:49.934Z,65.84
2019-01-18T19:03:19.611Z,64.82
2019-01-18T19:06:10.228Z,65.27
2019-01-18T19:08:57.556Z,65.27
2019-01-18T19:11:33.195Z,65.36
2019-01-18T19:14:14.996Z,65.38
2019-01-18T19:17:08.408Z,65.36
2019-01-18T19:20:05.743Z,66.10
2019-01-18T19:22:59.225Z,66.10
2019-01-18T19:25:34.846Z,65.95
2019-01-18T19:28:22.924Z,65.79
2019-01-18T19:31:01.701Z,65.64
2019-01-18T19:33:34.424Z,66.04
2019-01-18T19:36:13.272Z,66.21
2019-01-18T19:38:58.413Z,66.32
2019-01-18T19:41:34.760Z,66.82
2019-01-18T19:44:04.451Z,67.03
2019-01-18T19:46:49.206Z,67.32
2019-01-18T19:49:38.900Z,67.85
2019-01-18T19:52:09.469Z,67.63
2019-01-18T19:54:51.436Z,67.85
2019-01-18T19:57:36.297Z,68.26
2019-01-18T20:00:22.887Z,68.75
2019-01-18T20:02:55.295Z,69.15
2019-01-18T20:05:37.214Z,68.76
2019-01-18T20:08:15.784Z,68.44
2019-01-18T20:10:57.741Z,67.81
2019-01-18T20:13:36.013Z,67.83
2019-01-18T20:16:25.423Z,67.55
2019-01-18T20:19:13.626Z,67.75
2019-01-18T20:21:52.484Z,67.95
2019-01-18T20:24:40.583Z,68.04
2019-01-18T20:27:25.678Z,67.96
2019-01-18T20:30:04.187Z,67.90
2019-01-18T20:32:51.553Z,68.21
2019-01-18T20:35:33.431Z,68.21
2019-01-18T20:38:23.646Z,68.51
2019-01-18T20:40:54.295Z,68.51
2019-01-18T20:43:27.848Z,68.55
2019-01-18T20:46:26.423Z,68.21
2019-01-18T20:49:15.992Z,68.44
2019-01-18T20:51:45.689Z,68.81
2019-01-18T20:54:32.211Z,68.38
2019-01-18T20:57:01.901Z,68.23
2019-01-18T20:59:37.571Z,68.23
2019-01-18T21:02:13.435Z,68.61
2019-01-18T21:04:55.203Z,68.72
2019-01-18T21:07:41.762Z,69.19
2019-01-18T21:10:26.006Z,69.53
2019-01-18T21:13:16.336Z,69.94
2019-01-18T21:16:07.179Z,69.93
2019-01-18T21:18:51.920Z,70.44
2019-01-18T21:21:43.960Z,70.82
2019-01-18T21:24:28.811Z,70.58
2019-01-18T21:26:58.630Z,70.96
2019-01-18T21:29:34.545Z,71.51
2019-01-18T21:32:19.616Z,71.65
2019-01-18T21:34:49.326Z,71.51
2019-01-18T21:37:35.578Z,71.73
2019-01-18T21:40:23.774Z,71.53
2019-01-18T21:43:16.583Z,71.81
2019-01-18T21:45:55.958Z,71.92
2019-01-18T21:48:28.146Z,71.80
2019-01-18T21:51:02.380Z,71.77
2019-01-18T21:53:41.324Z,71.37
2019-01-18T21:56:35.672Z,71.19
2019-01-18T21:59:25.009Z,71.53
2019-01-18T22:02:00.749Z,71.62
2019-01-18T22:04:31.071Z,71.38
2019-01-18T22:07:06.746Z,71.22
2019-01-18T22:09:39.661Z,71.26
2019-01-18T22:12:15.362Z,71.48
2019-01-18T22:15:10.983Z,71.70
2019-01-18T22:17:47.006Z,71.53
2019-01-18T22:20:34.440Z,71.42
2019-01-18T22:23:13.323Z,71.31
2019-01-18T22:25:45.831Z,71.22
2019-01-18T22:28:43.225Z,71.41
2019-01-18T22:31:31.305Z,71.31
2019-01-18T22:34:04.078Z,71.16
2019-01-18T22:36:42.835Z,71.33
2019-01-18T22:39:33.299Z,71.27
2019-01-18T22:42:19.332Z,71.50
2019-01-18T22:44:49.689Z,71.69
2019-01-18T22:47:25.707Z,71.99
2019-01-18T22:49:55.409Z,71.84
2019-01-18T22:52:31.226Z,71.45
2019-01-18T22:55:17.156Z,71.39
2019-01-18T22:57:46.891Z,71.23
2019-01-18T23:00:55.477Z,71.41
2019-01-18T23:03:27.886Z,71.15
2019-01-18T23:06:14.509Z,71.28
2019-01-18T23:09:08.499Z,71.24
2019-01-18T23:11:47.295Z,71.40
2019-01-18T23:14:33.590Z,71.48
2019-01-18T23:17:15.768Z,71.69
2019-01-18T23:19:48.233Z,71.80
2019-01-18T23:22:26.598Z,71.41
2019-01-18T23:24:59.005Z,71.29
2019-01-18T23:27:31.318Z,71.10
2019-01-18T23:30:10.004Z,71.33
2019-01-18T23:33:15.879Z,71.20
2019-01-18T23:35:51.060Z,71.27
2019-01-18T23:38:52.377Z,70.89
2019-01-18T23:41:27.836Z,70.84
2019-01-18T23:44:00.321Z,70.95
2019-01-18T23:46:40.336Z,70.25
2019-01-18T23:49:16.444Z,69.83
2019-01-18T23:51:52.201Z,70.25
2019-01-18T23:54:24.657Z,70.25
2019-01-18T23:57:10.696Z,70.14
2019-01-18T23:59:46.642Z,70.20
